Time;durP1;ratioP1;P1;durP2;ratioP2;P2;SDS_P1;SDS_P2;PMS_P1;PMS_P2;Temp;Humidity;BMP_temperature;BMP_pressure;BME280_temperature;BME280_humidity;BME280_pressure;Samples;Min_cycle;Max_cycle;Signal;HPM_P1;HPM_P2
2021/10/12 00:00:46;;;;;;;33.23;21.50;;;;;;;6.67;92.77;96292.69;5057103;28;20587;-79
2021/10/12 00:03:12;;;;;;;30.23;20.13;;;;;;;6.67;92.83;96287.50;5056359;28;20212;-79
2021/10/12 00:05:37;;;;;;;31.43;19.87;;;;;;;6.65;92.89;96290.19;5075811;28;20229;-79
2021/10/12 00:08:03;;;;;;;33.03;20.43;;;;;;;6.63;92.85;96286.09;5057127;28;20197;-79
2021/10/12 00:10:28;;;;;;;29.87;19.13;;;;;;;6.61;92.81;96291.31;5057348;28;20181;-79
2021/10/12 00:12:54;;;;;;;31.90;19.63;;;;;;;6.60;93.06;96283.69;5056791;28;20220;-79
2021/10/12 00:15:20;;;;;;;30.47;18.80;;;;;;;6.60;93.10;96279.34;5039737;28;20185;-79
2021/10/12 00:17:45;;;;;;;27.30;18.20;;;;;;;6.56;92.96;96277.94;5056542;28;20205;-79
2021/10/12 00:20:10;;;;;;;32.00;20.43;;;;;;;6.56;93.19;96277.94;5073731;28;20185;-79
2021/10/12 00:22:36;;;;;;;28.10;19.53;;;;;;;6.51;92.96;96280.81;5056821;28;20208;-79
2021/10/12 00:25:01;;;;;;;28.53;19.23;;;;;;;6.50;93.11;96281.75;5056608;28;20215;-79
2021/10/12 00:27:27;;;;;;;25.50;18.03;;;;;;;6.48;92.88;96281.03;5056714;28;20189;-79
2021/10/12 00:29:52;;;;;;;28.40;18.27;;;;;;;6.44;93.10;96282.16;5057272;28;20223;-79
2021/10/12 00:32:17;;;;;;;25.30;17.93;;;;;;;6.42;92.90;96281.44;5057267;28;20258;-79
2021/10/12 00:34:43;;;;;;;31.50;19.67;;;;;;;6.39;93.05;96276.50;5047317;28;20181;-79
2021/10/12 00:37:08;;;;;;;27.40;18.83;;;;;;;6.38;92.80;96280.00;5037134;28;20259;-80
2021/10/12 00:39:33;;;;;;;24.97;17.57;;;;;;;6.39;92.83;96280.84;5020463;28;20633;-79
2021/10/12 00:41:59;;;;;;;27.10;18.73;;;;;;;6.38;93.02;96272.28;5055105;28;20252;-79
2021/10/12 00:44:25;;;;;;;25.17;16.83;;;;;;;6.40;92.96;96272.97;5054028;28;20256;-79
2021/10/12 00:46:52;;;;;;;28.07;18.87;;;;;;;6.41;92.93;96278.97;5036847;28;20292;-79
2021/10/12 00:49:18;;;;;;;33.20;20.03;;;;;;;6.42;93.13;96276.28;5037245;28;20190;-80
2021/10/12 00:51:43;;;;;;;26.47;18.23;;;;;;;6.44;92.72;96279.56;5047400;28;20681;-79
2021/10/12 00:54:08;;;;;;;27.97;17.43;;;;;;;6.47;93.01;96273.41;5035837;28;20193;-80
2021/10/12 00:56:34;;;;;;;31.53;18.33;;;;;;;6.51;92.97;96274.81;5036675;28;20315;-78
2021/10/12 00:59:01;;;;;;;28.67;17.77;;;;;;;6.53;92.73;96273.78;5020073;28;20328;-79
2021/10/12 01:01:26;;;;;;;25.47;16.73;;;;;;;6.51;92.68;96264.50;5053465;28;20182;-79
2021/10/12 01:03:51;;;;;;;29.30;17.63;;;;;;;6.53;93.10;96257.47;5034731;28;20174;-79
2021/10/12 01:06:17;;;;;;;27.83;17.67;;;;;;;6.58;92.96;96258.00;5036319;28;20557;-79
2021/10/12 01:08:42;;;;;;;26.17;17.17;;;;;;;6.59;93.31;96248.50;5036440;28;20480;-79
2021/10/12 01:11:07;;;;;;;28.27;16.83;;;;;;;6.62;92.79;96256.03;5036514;28;20174;-80
2021/10/12 01:13:33;;;;;;;24.63;17.20;;;;;;;6.61;92.69;96264.69;5036246;28;20727;-79
2021/10/12 01:15:58;;;;;;;26.90;18.23;;;;;;;6.62;92.84;96258.59;5020559;28;20251;-80
2021/10/12 01:18:23;;;;;;;23.80;16.57;;;;;;;6.63;92.62;96250.78;5020539;28;20213;-79
2021/10/12 01:20:53;;;;;;;27.40;18.30;;;;;;;6.65;92.37;96245.50;5054630;28;20182;-79
2021/10/12 01:23:18;;;;;;;24.80;16.77;;;;;;;6.61;92.74;96239.72;5052398;28;20182;-79
2021/10/12 01:25:44;;;;;;;26.07;17.00;;;;;;;6.65;92.42;96232.59;5037223;28;20184;-79
2021/10/12 01:28:09;;;;;;;24.73;16.30;;;;;;;6.65;92.52;96232.59;5019972;28;20265;-79
2021/10/12 01:30:37;;;;;;;23.43;16.60;;;;;;;6.63;92.23;96226.72;5036144;28;20204;-79
2021/10/12 01:33:02;;;;;;;19.97;15.17;;;;;;;6.60;92.29;96221.75;5019661;28;20185;-79
2021/10/12 01:35:27;;;;;;;23.93;14.73;;;;;;;6.58;91.86;96218.47;5052064;28;20645;-79
2021/10/12 01:37:53;;;;;;;21.47;14.63;;;;;;;6.56;91.92;96220.34;5036375;28;20236;-79
2021/10/12 01:40:18;;;;;;;21.30;13.30;;;;;;;6.54;91.96;96215.28;5036461;28;20182;-78
2021/10/12 01:42:44;;;;;;;18.87;13.23;;;;;;;6.48;91.83;96216.53;5054107;28;20243;-78
2021/10/12 01:45:10;;;;;;;18.67;13.50;;;;;;;6.44;91.70;96212.50;5035195;28;20189;-79
2021/10/12 01:47:36;;;;;;;23.37;12.80;;;;;;;6.40;91.84;96211.06;5054020;28;20341;-79
2021/10/12 01:50:03;;;;;;;16.83;11.57;;;;;;;6.37;91.73;96216.44;5019629;28;20177;-79
2021/10/12 01:52:28;;;;;;;17.63;11.87;;;;;;;6.38;91.69;96207.78;5019595;28;20190;-79
2021/10/12 01:54:54;;;;;;;16.63;11.40;;;;;;;6.38;91.51;96205.19;5019184;28;20235;-79
2021/10/12 01:57:19;;;;;;;16.10;11.50;;;;;;;6.37;91.51;96203.56;5036233;28;20786;-79
2021/10/12 01:59:45;;;;;;;19.33;11.27;;;;;;;6.38;91.29;96202.63;5019320;28;20181;-78
2021/10/12 02:02:11;;;;;;;20.00;12.20;;;;;;;6.40;91.25;96205.91;5036013;28;20189;-79
2021/10/12 02:04:36;;;;;;;15.67;10.10;;;;;;;6.44;91.09;96199.59;5033543;28;20182;-79
2021/10/12 02:07:02;;;;;;;15.97;11.00;;;;;;;6.42;91.02;96196.31;5035286;28;20272;-79
2021/10/12 02:09:27;;;;;;;17.30;11.10;;;;;;;6.44;91.04;96188.44;5035795;28;20194;-79
2021/10/12 02:11:53;;;;;;;17.30;11.17;;;;;;;6.44;90.80;96186.69;5035500;28;20177;-79
2021/10/12 02:14:19;;;;;;;16.00;10.90;;;;;;;6.47;90.63;96176.19;5051597;28;20209;-79
2021/10/12 02:16:44;;;;;;;19.13;10.80;;;;;;;6.47;90.58;96165.84;5052920;28;20645;-80
2021/10/12 02:19:10;;;;;;;15.87;9.80;;;;;;;6.50;90.47;96169.97;5035632;28;20225;-80
2021/10/12 02:21:35;;;;;;;19.93;10.87;;;;;;;6.48;90.46;96162.34;5036280;28;20665;-80
2021/10/12 02:24:01;;;;;;;15.37;10.27;;;;;;;6.49;90.76;96168.31;5036331;28;20216;-80
2021/10/12 02:26:26;;;;;;;16.73;10.30;;;;;;;6.53;90.50;96175.72;5020514;28;20177;-79
2021/10/12 02:28:51;;;;;;;20.23;11.47;;;;;;;6.51;90.46;96180.19;5053405;28;20575;-79
2021/10/12 02:31:17;;;;;;;15.37;10.53;;;;;;;6.55;90.38;96172.25;5036994;28;20178;-79
2021/10/12 02:33:42;;;;;;;15.73;10.37;;;;;;;6.58;90.40;96172.84;5036424;28;20189;-80
2021/10/12 02:36:08;;;;;;;20.97;11.00;;;;;;;6.59;90.46;96168.50;5023668;28;20178;-80
2021/10/12 02:38:33;;;;;;;24.57;11.77;;;;;;;6.61;89.96;96162.28;5023857;28;20681;-80
2021/10/12 02:40:59;;;;;;;19.77;11.67;;;;;;;6.59;89.97;96159.00;5024484;28;20243;-80
2021/10/12 02:43:24;;;;;;;24.77;18.20;;;;;;;6.64;89.97;96161.28;5040362;28;20280;-79
2021/10/12 02:45:50;;;;;;;22.53;15.77;;;;;;;6.65;89.88;96157.75;5039946;28;20193;-80
2021/10/12 02:48:15;;;;;;;22.97;14.27;;;;;;;6.65;90.06;96150.00;5056674;28;20196;-79
2021/10/12 02:50:43;;;;;;;17.80;13.50;;;;;;;6.65;89.84;96142.28;5039939;28;20257;-80
2021/10/12 02:53:10;;;;;;;19.73;12.30;;;;;;;6.65;89.84;96142.28;5039632;28;20178;-79
2021/10/12 02:55:35;;;;;;;18.30;11.90;;;;;;;6.65;89.89;96137.94;5022889;28;20182;-79
2021/10/12 02:58:00;;;;;;;14.03;10.57;;;;;;;6.65;89.47;96131.94;5023003;28;20241;-80
2021/10/12 03:00:25;;;;;;;17.03;10.07;;;;;;;6.67;89.74;96132.66;5023763;28;20546;-80
2021/10/12 03:02:51;;;;;;;14.57;9.30;;;;;;;6.67;89.32;96128.31;5038441;28;20182;-81
2021/10/12 03:05:16;;;;;;;14.93;9.33;;;;;;;6.68;89.59;96121.38;5039370;28;20181;-80
2021/10/12 03:07:41;;;;;;;17.07;10.87;;;;;;;6.67;89.46;96105.09;5056474;28;20244;-78
2021/10/12 03:10:07;;;;;;;19.33;12.73;;;;;;;6.68;89.18;96103.31;5040256;28;20186;-78
2021/10/12 03:12:33;;;;;;;16.80;11.23;;;;;;;6.70;89.17;96096.28;5040207;28;20248;-78
2021/10/12 03:14:58;;;;;;;14.33;9.07;;;;;;;6.69;89.16;96097.22;5039203;28;20189;-78
2021/10/12 03:17:23;;;;;;;17.67;9.33;;;;;;;6.67;88.76;96093.94;5056636;28;20735;-78
2021/10/12 03:19:48;;;;;;;13.43;8.67;;;;;;;6.68;88.87;96085.25;5023868;28;20186;-78
2021/10/12 03:22:15;;;;;;;15.97;8.83;;;;;;;6.69;88.82;96081.75;5040256;28;20181;-80
2021/10/12 03:24:41;;;;;;;15.73;8.67;;;;;;;6.65;88.72;96082.91;5055479;28;20961;-80
2021/10/12 03:27:08;;;;;;;10.30;8.13;;;;;;;6.65;88.58;96090.66;5040272;28;20185;-80
2021/10/12 03:29:33;;;;;;;16.33;8.80;;;;;;;6.64;88.83;96097.56;5040094;28;20221;-80
2021/10/12 03:32:01;;;;;;;16.47;8.43;;;;;;;6.61;88.61;96097.78;5058503;28;20217;-79
2021/10/12 03:34:27;;;;;;;14.70;8.20;;;;;;;6.64;88.71;96094.16;5057425;28;20238;-79
2021/10/12 03:36:54;;;;;;;13.00;9.47;;;;;;;6.64;88.69;96097.56;5056590;28;20198;-80
2021/10/12 03:39:19;;;;;;;14.70;9.00;;;;;;;6.66;88.69;96100.03;5039243;28;20685;-80
2021/10/12 03:41:45;;;;;;;14.10;8.43;;;;;;;6.66;88.74;96105.19;5039944;28;20189;-80
2021/10/12 03:44:10;;;;;;;13.37;8.30;;;;;;;6.67;88.55;96099.09;5057013;28;20201;-80
2021/10/12 03:46:36;;;;;;;16.43;8.00;;;;;;;6.69;88.41;96099.81;5022426;28;20192;-80
2021/10/12 03:49:02;;;;;;;15.47;8.90;;;;;;;6.69;88.66;96095.47;5039420;28;20569;-80
2021/10/12 03:51:27;;;;;;;11.03;8.10;;;;;;;6.72;88.62;96102.19;5039217;28;20178;-80
2021/10/12 03:53:52;;;;;;;17.50;9.30;;;;;;;6.70;88.62;96094.53;5021807;28;20182;-79
2021/10/12 03:56:17;;;;;;;14.37;8.50;;;;;;;6.75;88.50;96101.97;5023146;28;20178;-79
2021/10/12 03:58:43;;;;;;;12.87;8.37;;;;;;;6.74;88.55;96100.31;5038988;28;20221;-80
2021/10/12 04:01:08;;;;;;;13.93;8.87;;;;;;;6.78;88.44;96091.41;5022580;28;20228;-80
2021/10/12 04:03:34;;;;;;;14.47;7.90;;;;;;;6.76;88.42;96088.94;5037287;28;20174;-80
2021/10/12 04:05:59;;;;;;;14.30;8.23;;;;;;;6.76;88.38;96085.53;5040346;28;20178;-80
2021/10/12 04:08:24;;;;;;;11.07;8.00;;;;;;;6.77;88.45;96097.50;5055578;28;20198;-81
2021/10/12 04:10:50;;;;;;;12.73;8.37;;;;;;;6.78;88.51;96088.81;5058199;28;20170;-80
2021/10/12 04:13:15;;;;;;;13.30;8.47;;;;;;;6.78;88.56;96091.41;5024074;28;20170;-80
2021/10/12 04:15:40;;;;;;;14.07;8.73;;;;;;;6.79;88.50;96085.31;5023768;28;20259;-80
2021/10/12 04:18:06;;;;;;;12.77;7.73;;;;;;;6.79;88.34;96082.72;5057869;28;20210;-79
2021/10/12 04:20:32;;;;;;;15.93;8.43;;;;;;;6.81;88.25;96080.88;5039991;28;20181;-79
2021/10/12 04:22:58;;;;;;;14.27;8.70;;;;;;;6.78;88.80;96075.91;5056244;28;20174;-79
2021/10/12 04:25:24;;;;;;;16.23;9.47;;;;;;;6.84;88.89;96072.06;5056125;28;20176;-80
2021/10/12 04:27:51;;;;;;;15.40;9.30;;;;;;;6.84;88.95;96078.06;5037667;28;20193;-79
2021/10/12 04:30:17;;;;;;;13.40;9.80;;;;;;;6.87;89.16;96070.06;5037231;28;20541;-80
2021/10/12 04:32:42;;;;;;;21.27;11.30;;;;;;;6.87;89.34;96066.69;5037244;28;20174;-80
2021/10/12 04:35:08;;;;;;;16.37;10.53;;;;;;;6.86;89.48;96072.78;5036054;28;20174;-80
2021/10/12 04:37:33;;;;;;;19.00;10.53;;;;;;;6.86;89.84;96071.00;5036564;28;20264;-80
2021/10/12 04:39:58;;;;;;;16.30;10.43;;;;;;;6.87;90.02;96057.16;5036451;28;20185;-80
2021/10/12 04:42:23;;;;;;;15.37;9.70;;;;;;;6.86;90.24;96070.19;5054323;28;20190;-80
2021/10/12 04:44:50;;;;;;;20.13;11.20;;;;;;;6.88;90.27;96068.31;5036481;28;20240;-81
2021/10/12 04:47:16;;;;;;;20.33;10.97;;;;;;;6.89;90.44;96072.53;5036225;28;20170;-81
2021/10/12 04:49:43;;;;;;;18.40;10.93;;;;;;;6.87;90.49;96059.75;5019290;28;20185;-78
2021/10/12 04:52:08;;;;;;;20.10;10.93;;;;;;;6.88;90.66;96066.56;5041881;28;20200;-80
2021/10/12 04:54:34;;;;;;;21.87;11.93;;;;;;;6.87;90.90;96059.75;5055088;28;20667;-78
2021/10/12 04:56:59;;;;;;;16.00;10.57;;;;;;;6.87;91.17;96067.50;5038904;28;20188;-80
2021/10/12 04:59:24;;;;;;;17.70;12.70;;;;;;;6.87;90.95;96066.69;5074763;28;20205;-79
2021/10/12 05:01:50;;;;;;;15.33;11.13;;;;;;;6.87;91.04;96059.75;5073977;28;20177;-79
2021/10/12 05:04:15;;;;;;;16.03;10.87;;;;;;;6.86;91.09;96059.88;5055696;28;20184;-79
2021/10/12 05:06:40;;;;;;;21.87;11.63;;;;;;;6.85;91.63;96053.06;5056176;28;20207;-79
2021/10/12 05:09:05;;;;;;;22.57;12.10;;;;;;;6.85;91.93;96061.63;5057860;28;20318;-80
2021/10/12 05:11:31;;;;;;;17.37;10.77;;;;;;;6.84;91.83;96059.97;5068313;28;20180;-80
2021/10/12 05:13:57;;;;;;;22.00;12.60;;;;;;;6.86;91.94;96063.28;5075482;28;20172;-79
2021/10/12 05:16:23;;;;;;;18.50;12.03;;;;;;;6.86;92.08;96058.09;5076212;28;20176;-79
2021/10/12 05:18:51;;;;;;;21.50;12.37;;;;;;;6.87;92.27;96058.94;5075884;28;20300;-79
2021/10/12 05:21:16;;;;;;;19.27;11.57;;;;;;;6.87;92.76;96054.59;5094178;28;20176;-79
2021/10/12 05:23:42;;;;;;;21.30;11.83;;;;;;;6.89;92.62;96057.91;5075112;28;20286;-80
2021/10/12 05:26:07;;;;;;;19.23;11.90;;;;;;;6.87;92.87;96044.25;5076195;28;20263;-81
2021/10/12 05:28:35;;;;;;;18.40;11.43;;;;;;;6.85;92.76;96040.97;5073682;28;20201;-80
2021/10/12 05:31:01;;;;;;;17.53;11.30;;;;;;;6.82;92.96;96025.72;5076346;28;20182;-80
2021/10/12 05:33:26;;;;;;;23.30;11.73;;;;;;;6.81;93.08;96031.81;5074513;28;20177;-79
2021/10/12 05:35:54;;;;;;;16.63;11.47;;;;;;;6.82;92.86;96031.72;5039912;28;20189;-80
2021/10/12 05:38:19;;;;;;;21.10;11.00;;;;;;;6.81;93.35;96034.41;5047957;28;20216;-80
2021/10/12 05:40:45;;;;;;;19.83;12.10;;;;;;;6.84;93.01;96028.19;5060710;28;20177;-81
2021/10/12 05:43:10;;;;;;;21.70;12.00;;;;;;;6.80;93.25;96027.56;5055646;28;20193;-80
2021/10/12 05:45:36;;;;;;;21.93;12.93;;;;;;;6.80;93.21;96033.59;5057979;28;20184;-80
2021/10/12 05:48:03;;;;;;;16.53;11.40;;;;;;;6.80;93.84;96031.00;5059347;28;20201;-81
2021/10/12 05:50:28;;;;;;;19.30;11.47;;;;;;;6.77;93.44;96038.13;5056187;28;20196;-81
2021/10/12 05:55:45;;;;;;;19.90;11.47;;;;;;;6.69;94.50;96050.78;5060168;28;20185;-80
2021/10/12 05:58:12;;;;;;;21.17;13.40;;;;;;;6.55;95.65;96048.38;5072017;28;20208;-80
2021/10/12 06:00:37;;;;;;;23.53;15.60;;;;;;;6.59;95.86;96044.63;5070018;28;20185;-80
2021/10/12 06:03:03;;;;;;;28.23;16.77;;;;;;;6.53;95.57;96038.97;5053805;28;20302;-81
2021/10/12 06:05:28;;;;;;;33.33;21.03;;;;;;;6.60;96.11;96035.97;5078683;28;20680;-80
2021/10/12 06:07:54;;;;;;;25.17;17.03;;;;;;;6.61;95.81;96032.44;5083871;28;20201;-80
2021/10/12 06:10:20;;;;;;;24.33;16.80;;;;;;;6.63;96.08;96033.16;5081740;28;20177;-79
2021/10/12 06:12:45;;;;;;;23.23;16.67;;;;;;;6.65;96.74;96023.56;5060696;28;20187;-81
2021/10/12 06:15:10;;;;;;;24.83;16.73;;;;;;;6.66;96.40;96038.09;5059672;28;20272;-79
2021/10/12 06:17:35;;;;;;;23.87;17.27;;;;;;;6.72;96.34;96032.50;5075862;28;20228;-79
2021/10/12 06:20:01;;;;;;;25.90;17.00;;;;;;;6.75;96.36;96037.44;5064708;28;20473;-81
2021/10/12 06:22:26;;;;;;;23.27;15.77;;;;;;;6.76;96.47;96031.31;5076160;28;20180;-79
2021/10/12 06:24:51;;;;;;;25.47;16.30;;;;;;;6.76;96.71;96045.06;5074762;28;20192;-79
2021/10/12 06:27:17;;;;;;;25.77;18.30;;;;;;;6.73;96.42;96042.72;5074831;28;20260;-79
2021/10/12 06:29:42;;;;;;;23.87;17.67;;;;;;;6.81;96.34;96045.56;5076054;28;20192;-79
2021/10/12 06:32:07;;;;;;;31.53;19.07;;;;;;;6.71;96.87;96036.00;5075577;28;20195;-79
2021/10/12 06:34:33;;;;;;;25.00;17.07;;;;;;;6.74;96.95;96052.09;5073830;28;20185;-79
2021/10/12 06:36:58;;;;;;;30.33;20.37;;;;;;;6.75;96.77;96045.16;5073335;28;20664;-80
2021/10/12 06:39:23;;;;;;;23.53;16.83;;;;;;;6.75;96.56;96058.91;5057409;28;20311;-79
2021/10/12 06:41:48;;;;;;;21.23;16.17;;;;;;;6.83;96.55;96055.75;5056865;28;20302;-79
2021/10/12 06:44:14;;;;;;;20.47;14.67;;;;;;;6.81;96.57;96052.47;5073132;28;20189;-80
2021/10/12 06:46:40;;;;;;;20.03;15.27;;;;;;;6.82;96.27;96049.78;5057116;28;20177;-79
2021/10/12 06:49:06;;;;;;;19.17;13.23;;;;;;;6.82;96.46;96054.94;5072524;28;20235;-81
2021/10/12 06:51:32;;;;;;;16.93;12.23;;;;;;;6.75;95.85;96051.16;5059929;28;20193;-82
2021/10/12 06:53:57;;;;;;;18.73;11.60;;;;;;;6.70;95.58;96047.25;5074833;28;20189;-81
2021/10/12 06:56:22;;;;;;;17.13;9.83;;;;;;;6.64;95.49;96045.97;5057630;28;20250;-83
2021/10/12 06:58:48;;;;;;;12.07;9.20;;;;;;;6.61;95.15;96040.19;5072207;28;20236;-83
2021/10/12 07:01:13;;;;;;;11.40;7.73;;;;;;;6.55;94.15;96038.88;5042572;28;20238;-82
2021/10/12 07:03:38;;;;;;;11.47;8.37;;;;;;;6.62;94.47;96046.97;5061139;28;20181;-81
2021/10/12 07:06:03;;;;;;;11.07;8.87;;;;;;;6.66;94.48;96048.41;5076351;28;20235;-80
2021/10/12 07:08:29;;;;;;;13.53;7.83;;;;;;;6.68;94.01;96055.13;5074665;28;20575;-80
2021/10/12 07:10:55;;;;;;;14.97;8.53;;;;;;;6.75;94.23;96058.06;5076161;28;20213;-80
2021/10/12 07:13:26;;;;;;;10.43;8.47;;;;;;;6.73;93.42;96058.19;5062514;28;20203;-80
2021/10/12 07:15:52;;;;;;;9.80;8.77;;;;;;;6.78;93.50;96061.25;5058947;28;20192;-79
2021/10/12 07:18:18;;;;;;;17.03;11.67;;;;;;;6.86;93.72;96052.94;5075159;28;20213;-79
2021/10/12 07:20:43;;;;;;;14.67;10.53;;;;;;;6.91;93.74;96055.19;5075336;28;20225;-80
2021/10/12 07:23:08;;;;;;;13.77;10.77;;;;;;;6.95;93.60;96056.63;5078371;28;20264;-79
2021/10/12 07:25:34;;;;;;;17.43;10.60;;;;;;;6.95;93.18;96039.34;5077035;28;20255;-80
2021/10/12 07:27:59;;;;;;;13.23;9.23;;;;;;;6.96;93.10;96038.41;5077783;28;20208;-80
2021/10/12 07:30:24;;;;;;;14.67;8.67;;;;;;;7.00;92.99;96024.38;5057361;28;20188;-79
2021/10/12 07:32:50;;;;;;;15.13;9.07;;;;;;;7.08;92.55;96022.03;5057951;28;20177;-82
2021/10/12 07:35:15;;;;;;;13.50;8.37;;;;;;;7.15;92.34;96026.72;5042406;28;20610;-80
2021/10/12 07:37:42;;;;;;;9.80;7.73;;;;;;;7.20;92.89;96025.44;5074845;28;20680;-79
2021/10/12 07:40:08;;;;;;;11.07;7.60;;;;;;;7.20;92.96;96022.03;5057801;28;20203;-79
2021/10/12 07:42:34;;;;;;;13.70;8.20;;;;;;;7.32;92.78;96023.69;5076223;28;20751;-79
2021/10/12 07:45:00;;;;;;;11.93;8.57;;;;;;;7.39;92.40;96027.47;5057606;28;20185;-79
2021/10/12 07:47:25;;;;;;;12.60;9.30;;;;;;;7.44;92.33;96027.13;5076335;28;20181;-79
2021/10/12 07:49:50;;;;;;;12.63;8.40;;;;;;;7.55;91.97;96025.38;5076765;28;20181;-79
2021/10/12 07:52:16;;;;;;;9.73;7.70;;;;;;;7.67;91.54;96021.00;5056006;28;20194;-79
2021/10/12 07:55:25;;;;;;;9.87;7.03;;;;;;;7.80;90.32;96024.31;5048610;28;20815;-79
2021/10/12 07:57:33;;;;;;;9.87;6.27;;;;;;;7.99;90.17;96026.28;5062205;28;20220;-79
2021/10/12 07:59:58;;;;;;;9.37;6.17;;;;;;;8.11;88.22;96017.53;5086385;28;20200;-79
2021/10/12 08:02:24;;;;;;;9.10;5.70;;;;;;;8.28;87.98;96021.38;5067145;28;20638;-79
2021/10/12 08:04:49;;;;;;;11.63;5.97;;;;;;;8.40;87.75;96017.03;5079380;28;20185;-79
2021/10/12 08:07:15;;;;;;;6.53;5.33;;;;;;;8.55;86.93;96018.38;5045108;28;20216;-79
2021/10/12 08:09:40;;;;;;;10.40;5.90;;;;;;;8.68;85.87;96011.28;5075115;28;20184;-79
2021/10/12 08:12:06;;;;;;;9.13;5.73;;;;;;;8.82;85.19;96014.50;5058340;28;20181;-79
2021/10/12 08:14:35;;;;;;;8.87;5.53;;;;;;;8.89;84.62;96013.06;5076378;28;20223;-79
2021/10/12 08:17:01;;;;;;;8.93;5.53;;;;;;;9.04;84.23;96017.00;5058576;28;20173;-79
2021/10/12 08:19:26;;;;;;;10.37;5.57;;;;;;;9.16;83.59;96009.97;5042251;28;20201;-78
2021/10/12 08:21:52;;;;;;;7.07;5.20;;;;;;;9.17;83.23;96011.59;5057850;28;20205;-79
2021/10/12 08:24:20;;;;;;;8.63;5.77;;;;;;;9.28;82.78;96020.13;5062833;28;20256;-79
2021/10/12 08:26:45;;;;;;;11.40;6.17;;;;;;;9.39;82.27;96010.63;5062354;28;20208;-79
2021/10/12 08:29:10;;;;;;;7.17;4.63;;;;;;;9.51;81.07;96015.59;5057057;28;20193;-78
2021/10/12 08:31:36;;;;;;;9.30;5.20;;;;;;;9.59;80.90;96022.75;5054626;28;20790;-78
2021/10/12 08:34:01;;;;;;;8.60;5.00;;;;;;;9.78;80.08;96009.03;5049098;28;20204;-79
2021/10/12 08:36:26;;;;;;;9.53;4.93;;;;;;;9.64;79.11;96010.22;5058168;28;20592;-77
2021/10/12 08:38:55;;;;;;;8.20;4.50;;;;;;;9.68;79.67;96016.75;5074724;28;20761;-80
2021/10/12 08:41:25;;;;;;;7.47;5.07;;;;;;;9.96;79.65;96014.41;5056918;28;20274;-79
2021/10/12 08:43:54;;;;;;;8.03;4.90;;;;;;;9.92;78.65;96014.69;5053862;28;20196;-78
2021/10/12 08:46:23;;;;;;;12.63;7.40;;;;;;;9.87;79.14;96011.63;5071064;28;20177;-79
2021/10/12 08:48:48;;;;;;;11.57;7.77;;;;;;;10.04;79.10;96015.38;5070234;28;20193;-77
2021/10/12 08:51:13;;;;;;;11.50;7.67;;;;;;;10.15;79.28;96019.63;5086127;28;20250;-79
2021/10/12 08:53:39;;;;;;;10.27;5.27;;;;;;;10.11;79.97;96018.28;5069559;28;20243;-79
2021/10/12 08:56:06;;;;;;;7.90;5.63;;;;;;;10.03;79.42;96015.53;5066542;28;20696;-79
2021/10/12 08:58:31;;;;;;;12.83;5.80;;;;;;;9.81;79.89;96014.78;5057145;28;20271;-78
2021/10/12 09:01:17;;;;;;;7.17;5.83;;;;;;;9.75;80.86;96012.72;5054518;28;20208;-79
2021/10/12 09:06:30;;;;;;;14.07;7.37;;;;;;;9.98;81.73;96008.13;5070689;28;20263;-80
2021/10/12 09:08:57;;;;;;;10.50;7.73;;;;;;;10.27;80.45;96007.41;5073040;28;20549;-79
2021/10/12 09:11:24;;;;;;;12.00;8.50;;;;;;;10.32;80.93;96008.63;5046219;28;20173;-79
2021/10/12 09:13:53;;;;;;;11.20;8.87;;;;;;;10.46;79.87;96007.44;5070644;28;20193;-79
2021/10/12 09:16:19;;;;;;;15.20;10.37;;;;;;;10.30;80.91;95996.75;5070684;28;20181;-78
2021/10/12 09:18:50;;;;;;;22.00;13.80;;;;;;;10.04;80.66;96006.78;5053984;28;20204;-79
2021/10/12 09:21:17;;;;;;;15.10;10.03;;;;;;;9.90;82.09;96005.41;5056291;28;20733;-79
2021/10/12 09:23:43;;;;;;;17.30;11.33;;;;;;;9.83;82.99;95994.72;5069064;28;20181;-78
2021/10/12 09:26:26;;;;;;;15.83;11.40;;;;;;;9.87;82.71;95995.25;5071167;28;20181;-79
2021/10/12 09:29:09;;;;;;;17.93;10.23;;;;;;;9.99;82.36;95996.00;5066949;28;20189;-78
2021/10/12 09:31:37;;;;;;;13.93;9.80;;;;;;;10.06;80.62;95986.69;5067557;28;20193;-79
2021/10/12 09:34:04;;;;;;;15.40;9.60;;;;;;;10.24;81.40;95982.53;5057557;28;20181;-79
2021/10/12 09:36:33;;;;;;;17.33;10.00;;;;;;;10.39;80.74;95978.59;5058303;28;20177;-78
2021/10/12 09:38:58;;;;;;;13.00;8.60;;;;;;;10.57;79.84;95967.53;5066010;28;20295;-79
2021/10/12 09:41:25;;;;;;;14.80;8.90;;;;;;;10.38;79.89;95976.94;5046534;28;20649;-80
2021/10/12 09:43:52;;;;;;;14.57;9.10;;;;;;;10.40;80.02;95982.81;5071226;28;21097;-79
2021/10/12 09:46:34;;;;;;;17.23;9.80;;;;;;;10.31;80.44;95986.22;5061840;28;20194;-79
2021/10/12 09:49:10;;;;;;;13.60;9.50;;;;;;;10.54;80.22;95978.19;5043197;28;20205;-80
2021/10/12 09:51:35;;;;;;;13.73;9.13;;;;;;;10.17;79.83;95971.03;5057752;28;20218;-79
2021/10/12 09:54:00;;;;;;;17.83;9.27;;;;;;;10.07;80.60;95971.03;5081724;28;20656;-79
2021/10/12 09:56:26;;;;;;;13.47;8.40;;;;;;;9.95;80.34;95972.06;5085261;28;20181;-80
2021/10/12 09:58:51;;;;;;;14.97;9.97;;;;;;;9.84;81.10;95959.22;5073928;28;20219;-80
2021/10/12 10:01:17;;;;;;;14.97;9.43;;;;;;;9.73;82.03;95965.34;5058967;28;20231;-80
2021/10/12 10:03:43;;;;;;;17.10;9.27;;;;;;;9.79;80.96;95957.00;5080429;28;20209;-79
2021/10/12 10:06:11;;;;;;;14.60;8.70;;;;;;;9.80;81.22;95950.88;5050181;28;20188;-79
2021/10/12 10:08:38;;;;;;;12.70;9.03;;;;;;;9.92;80.75;95954.19;5059142;28;20216;-79
2021/10/12 10:11:06;;;;;;;13.57;8.33;;;;;;;9.97;80.09;95953.78;5072109;28;20189;-78
2021/10/12 10:13:33;;;;;;;10.13;8.33;;;;;;;9.98;80.49;95955.41;5067768;28;20233;-78
2021/10/12 10:15:59;;;;;;;13.60;8.50;;;;;;;9.90;80.65;95948.31;5068246;28;20264;-79
2021/10/12 10:18:25;;;;;;;18.13;8.30;;;;;;;9.90;80.57;95946.53;5057320;28;20614;-77
2021/10/12 10:20:53;;;;;;;13.30;7.67;;;;;;;10.08;79.46;95946.72;5074229;28;20211;-78
2021/10/12 10:23:47;;;;;;;9.17;6.23;;;;;;;10.21;78.91;95946.44;5065864;28;20177;-78
2021/10/12 10:26:24;;;;;;;9.23;5.63;;;;;;;10.20;77.05;95939.63;5077426;28;20665;-78
2021/10/12 10:28:51;;;;;;;12.23;5.87;;;;;;;10.36;76.31;95939.09;5075503;28;20765;-79
2021/10/12 10:31:17;;;;;;;10.10;5.13;;;;;;;10.45;75.52;95933.91;5061553;28;20181;-79
2021/10/12 10:33:42;;;;;;;9.13;5.10;;;;;;;10.37;75.81;95931.19;5077429;28;20200;-79
2021/10/12 10:36:15;;;;;;;11.93;5.30;;;;;;;10.69;75.05;95935.25;5076925;28;20340;-79
2021/10/12 10:38:46;;;;;;;14.37;7.80;;;;;;;10.76;74.22;95926.75;5076917;28;20228;-79
2021/10/12 10:41:13;;;;;;;27.27;14.60;;;;;;;11.05;72.88;95924.13;5050962;28;20200;-79
2021/10/12 10:44:01;;;;;;;10.83;7.60;;;;;;;11.33;72.84;95934.56;5077479;28;20193;-78
2021/10/12 10:46:33;;;;;;;8.80;5.30;;;;;;;11.03;72.71;95933.81;5068938;28;20174;-79
2021/10/12 10:49:10;;;;;;;10.60;6.17;;;;;;;11.10;72.92;95922.84;5077582;28;20197;-78
2021/10/12 10:51:46;;;;;;;7.57;4.67;;;;;;;11.30;72.52;95925.25;5074873;28;20561;-80
2021/10/12 10:54:51;;;;;;;7.03;5.00;;;;;;;11.28;71.51;95921.97;5058606;28;20180;-78
2021/10/12 10:57:21;;;;;;;11.10;4.63;;;;;;;11.37;71.41;95922.91;5061718;28;20272;-78
2021/10/12 10:59:48;;;;;;;10.07;4.67;;;;;;;11.45;71.17;95919.59;5078991;28;20191;-79
2021/10/12 11:02:26;;;;;;;10.00;4.23;;;;;;;11.58;69.75;95910.50;5062705;28;20177;-78
2021/10/12 11:04:54;;;;;;;8.13;4.43;;;;;;;11.47;68.90;95910.66;5079155;28;20181;-78
2021/10/12 11:07:24;;;;;;;9.73;4.63;;;;;;;11.45;69.88;95912.59;5045046;28;20177;-79
2021/10/12 11:09:50;;;;;;;13.13;4.60;;;;;;;11.52;69.62;95897.25;5071934;28;20185;-80
2021/10/12 11:12:21;;;;;;;14.67;9.33;;;;;;;11.55;69.05;95892.56;5075637;28;20209;-80
2021/10/12 11:14:50;;;;;;;38.10;28.83;;;;;;;11.54;69.07;95910.91;5075235;28;20250;-81
2021/10/12 11:17:16;;;;;;;9.07;5.70;;;;;;;11.39;68.65;95891.53;5076350;28;20234;-81
2021/10/12 11:20:09;;;;;;;14.47;5.80;;;;;;;10.97;70.85;95890.22;5056882;28;20739;-79
2021/10/12 11:22:39;;;;;;;9.23;4.73;;;;;;;11.04;70.96;95886.09;5069791;28;20185;-80
2021/10/12 11:25:04;;;;;;;9.83;5.60;;;;;;;11.05;71.06;95894.72;5056351;28;20189;-80
2021/10/12 11:27:39;;;;;;;14.17;7.33;;;;;;;10.82;72.17;95883.81;5092861;28;20184;-80
2021/10/12 11:30:12;;;;;;;9.67;6.70;;;;;;;10.71;72.87;95886.59;5058781;28;20176;-81
2021/10/12 11:32:37;;;;;;;10.33;6.07;;;;;;;10.88;72.25;95883.28;5069026;28;20188;-79